Terminal Aerodrome Forecast
Issued by NWS Houston/Galveston, TX

Home | Current Version | Previous Version | Text Only | Print | Product List | Glossary On
Versions: 1 2 3 4 5 6 7 8 9 10 11 12 13 14 15 16 17 18 19 20 21 22 23 24 25 26 27 28 29 30 31 32 33 34 35 36 37 38 39 40
000
FTUS44 KHGX 220523
TAFGLS
TAF
KGLS 220523Z 2206/2306 12007KT P6SM SCT008 BKN015 BKN070
     FM221400 20011KT P6SM SCT015 BKN040
     FM221900 21012KT P6SM SCT025 BKN250
     FM230000 21011KT P6SM FEW015 BKN250=

USA.gov is the U.S. government's official web portal to all federal, state and local government web resources and services.